createdAt,value
2018-11-01T00:00:16.408Z,5.23
2018-11-01T00:03:20.825Z,6.00
2018-11-01T00:06:25.123Z,5.93
2018-11-01T00:09:29.417Z,7.37
2018-11-01T00:12:33.720Z,5.10
2018-11-01T00:15:38.017Z,8.87
2018-11-01T00:18:42.347Z,4.50
2018-11-01T00:21:46.622Z,6.27
2018-11-01T00:24:50.928Z,3.97
2018-11-01T00:27:55.206Z,5.37
2018-11-01T00:30:59.531Z,7.03
2018-11-01T00:34:03.803Z,6.50
2018-11-01T00:37:08.137Z,4.27
2018-11-01T00:40:14.936Z,5.30
2018-11-01T00:43:19.242Z,5.93
2018-11-01T00:46:23.528Z,4.77
2018-11-01T00:49:27.806Z,4.93
2018-11-01T00:52:32.139Z,4.77
2018-11-01T00:55:36.437Z,6.40
2018-11-01T00:58:40.759Z,7.37
2018-11-01T01:01:45.040Z,6.53
2018-11-01T01:04:49.337Z,5.77
2018-11-01T01:07:54.078Z,4.97
2018-11-01T01:10:58.417Z,6.57
2018-11-01T01:14:02.690Z,5.47
2018-11-01T01:17:07.021Z,5.37
2018-11-01T01:20:13.116Z,6.40
2018-11-01T01:23:17.393Z,4.27
2018-11-01T01:26:21.700Z,5.33
2018-11-01T01:29:26.059Z,4.57
2018-11-01T01:32:30.284Z,5.23
2018-11-01T01:35:34.553Z,7.13
2018-11-01T01:38:38.868Z,5.77
2018-11-01T01:41:43.141Z,5.00
2018-11-01T01:44:47.440Z,5.47
2018-11-01T01:47:51.747Z,6.17
2018-11-01T01:50:56.075Z,5.87
2018-11-01T01:54:00.336Z,4.13
2018-11-01T01:57:04.660Z,4.37
2018-11-01T02:00:13.679Z,4.43
2018-11-01T02:03:17.979Z,6.10
2018-11-01T02:06:22.239Z,4.67
2018-11-01T02:09:26.550Z,7.70
2018-11-01T02:12:30.844Z,5.03
2018-11-01T02:15:35.122Z,4.77
2018-11-01T02:18:39.441Z,6.30
2018-11-01T02:21:43.732Z,4.67
2018-11-01T02:24:48.004Z,4.70
2018-11-01T02:27:57.474Z,3.97
2018-11-01T02:31:01.778Z,5.23
2018-11-01T02:34:06.258Z,3.80
2018-11-01T02:37:10.560Z,5.83
2018-11-01T02:40:15.145Z,4.57
2018-11-01T02:43:19.405Z,3.50
2018-11-01T02:46:23.698Z,4.07
2018-11-01T02:49:27.960Z,3.47
2018-11-01T02:52:32.269Z,4.27
2018-11-01T02:55:36.882Z,5.77
2018-11-01T02:58:41.236Z,5.33
2018-11-01T03:01:45.579Z,4.63
2018-11-01T03:04:49.881Z,5.23
2018-11-01T03:07:54.158Z,3.80
2018-11-01T03:10:58.513Z,2.93
2018-11-01T03:14:02.808Z,4.37
2018-11-01T03:17:07.621Z,4.63
2018-11-01T03:20:12.562Z,4.20
2018-11-01T03:23:16.883Z,3.30
2018-11-01T03:26:21.303Z,6.80
2018-11-01T03:29:25.534Z,3.47
2018-11-01T03:32:29.842Z,6.07
2018-11-01T03:35:34.185Z,3.93
2018-11-01T03:38:38.502Z,3.27
2018-11-01T03:41:42.800Z,3.00
2018-11-01T03:44:47.110Z,3.33
2018-11-01T03:47:51.356Z,4.07
2018-11-01T03:50:55.839Z,4.70
2018-11-01T03:54:00.566Z,3.83
2018-11-01T03:57:07.055Z,3.30
2018-11-01T04:00:15.359Z,5.03
2018-11-01T04:03:20.304Z,3.60
2018-11-01T04:06:26.607Z,4.23
2018-11-01T04:09:30.961Z,3.83
2018-11-01T04:12:35.709Z,3.13
2018-11-01T04:15:41.250Z,7.50
2018-11-01T04:18:47.586Z,5.30
2018-11-01T04:21:59.787Z,5.07
2018-11-01T04:25:05.209Z,6.20
2018-11-01T04:28:12.349Z,3.40
2018-11-01T04:31:17.373Z,2.83
2018-11-01T04:34:22.329Z,3.03
2018-11-01T04:37:27.811Z,3.97
2018-11-01T04:40:32.303Z,6.47
2018-11-01T04:43:36.609Z,3.97
2018-11-01T04:46:40.886Z,3.17
2018-11-01T04:49:45.171Z,3.30
2018-11-01T04:52:49.454Z,4.40
2018-11-01T04:55:53.761Z,3.13
2018-11-01T04:58:58.104Z,4.53
2018-11-01T05:02:02.506Z,3.47
2018-11-01T05:05:07.816Z,4.73
2018-11-01T05:08:12.196Z,3.67
2018-11-01T05:11:16.874Z,3.30
2018-11-01T05:14:21.197Z,4.27
2018-11-01T05:17:25.577Z,6.53
2018-11-01T05:20:29.900Z,4.43
2018-11-01T05:23:34.180Z,2.70
2018-11-01T05:26:38.452Z,4.57
2018-11-01T05:29:42.753Z,3.10
2018-11-01T05:32:47.012Z,5.70
2018-11-01T05:35:51.325Z,5.93
2018-11-01T05:38:55.655Z,3.03
2018-11-01T05:41:59.933Z,4.10
2018-11-01T05:45:04.250Z,7.00
2018-11-01T05:48:08.573Z,3.30
2018-11-01T05:51:12.880Z,4.30
2018-11-01T05:54:17.152Z,3.70
2018-11-01T05:57:21.411Z,5.83
2018-11-01T06:00:25.748Z,3.80
2018-11-01T06:03:30.022Z,7.03
2018-11-01T06:06:34.300Z,2.87
2018-11-01T06:09:38.662Z,3.40
2018-11-01T06:12:42.954Z,3.07
2018-11-01T06:15:47.292Z,5.87
2018-11-01T06:18:51.633Z,3.67
2018-11-01T06:21:55.956Z,2.70
2018-11-01T06:25:00.369Z,3.03
2018-11-01T06:28:04.784Z,3.87
2018-11-01T06:31:09.080Z,4.77
2018-11-01T06:34:21.525Z,4.40
2018-11-01T06:37:25.829Z,5.37
2018-11-01T06:40:30.153Z,3.47
2018-11-01T06:43:34.428Z,4.10
2018-11-01T06:46:38.724Z,4.50
2018-11-01T06:49:43.010Z,4.93
2018-11-01T06:52:47.362Z,6.43
2018-11-01T06:55:51.633Z,4.40
2018-11-01T06:58:55.946Z,7.37
2018-11-01T07:02:00.295Z,7.80
2018-11-01T07:05:04.840Z,5.90
2018-11-01T07:08:09.138Z,6.97
2018-11-01T07:11:13.483Z,6.13
2018-11-01T07:14:17.734Z,3.40
2018-11-01T07:17:22.254Z,4.00
2018-11-01T07:20:26.337Z,4.97
2018-11-01T07:23:30.681Z,10.37
2018-11-01T07:26:35.887Z,4.50
2018-11-01T07:29:39.961Z,4.70
2018-11-01T07:32:44.303Z,3.80
2018-11-01T07:35:48.579Z,4.47
2018-11-01T07:38:52.839Z,3.93
2018-11-01T07:41:57.103Z,4.20
2018-11-01T07:45:01.420Z,5.03
2018-11-01T07:48:06.175Z,5.20
2018-11-01T07:51:10.432Z,3.00
2018-11-01T07:54:14.942Z,6.57
2018-11-01T07:57:19.223Z,3.77
2018-11-01T08:00:23.508Z,5.03
2018-11-01T08:03:27.786Z,5.17
2018-11-01T08:06:32.176Z,4.17
2018-11-01T08:09:36.432Z,3.83
2018-11-01T08:12:41.092Z,2.93
2018-11-01T08:15:45.420Z,4.27
2018-11-01T08:18:49.691Z,7.43
2018-11-01T08:21:54.014Z,4.63
2018-11-01T08:24:58.350Z,3.83
2018-11-01T08:28:02.722Z,4.80
2018-11-01T08:31:06.937Z,5.00
2018-11-01T08:34:11.236Z,5.67
2018-11-01T08:37:15.538Z,6.03
2018-11-01T08:40:19.841Z,4.33
2018-11-01T08:43:24.112Z,4.83
2018-11-01T08:46:28.340Z,4.40
2018-11-01T08:49:32.751Z,5.60
2018-11-01T08:52:36.905Z,4.87
2018-11-01T08:55:41.172Z,3.73
2018-11-01T08:58:45.455Z,4.67
2018-11-01T09:01:49.732Z,4.73
2018-11-01T09:04:54.037Z,5.57
2018-11-01T09:07:58.372Z,5.30
2018-11-01T09:11:02.660Z,5.83
2018-11-01T09:14:07.535Z,5.90
2018-11-01T09:17:11.881Z,4.70
2018-11-01T09:20:16.165Z,4.60
2018-11-01T09:23:20.460Z,4.63
2018-11-01T09:26:24.793Z,4.40
2018-11-01T09:29:29.029Z,4.40
2018-11-01T09:32:33.341Z,4.17
2018-11-01T09:35:37.624Z,4.80
2018-11-01T09:38:41.876Z,4.97
2018-11-01T09:41:46.360Z,7.27
2018-11-01T09:44:50.786Z,3.10
2018-11-01T09:47:55.121Z,5.10
2018-11-01T09:50:59.453Z,5.50
2018-11-01T09:54:04.542Z,3.90
2018-11-01T09:57:08.975Z,4.03
2018-11-01T10:00:14.582Z,6.10
2018-11-01T10:03:18.857Z,4.40
2018-11-01T10:06:23.553Z,5.00
2018-11-01T10:09:27.991Z,3.87
2018-11-01T10:12:32.536Z,4.57
2018-11-01T10:15:37.917Z,5.47
2018-11-01T10:18:42.290Z,4.10
2018-11-01T10:21:46.641Z,5.90
2018-11-01T10:24:51.237Z,5.30
2018-11-01T10:27:55.750Z,4.77
2018-11-01T10:31:00.344Z,7.57
2018-11-01T10:34:04.926Z,5.40
2018-11-01T10:37:10.542Z,5.40
2018-11-01T10:40:18.273Z,3.70
2018-11-01T10:43:22.607Z,5.10
2018-11-01T10:46:26.979Z,6.27
2018-11-01T10:49:31.236Z,9.87
2018-11-01T10:52:35.497Z,7.93
2018-11-01T10:55:39.773Z,5.47
2018-11-01T10:58:44.071Z,8.67
2018-11-01T11:01:53.619Z,5.37
2018-11-01T11:04:57.875Z,5.53
2018-11-01T11:08:02.219Z,6.13
2018-11-01T11:11:06.545Z,7.80
2018-11-01T11:14:10.885Z,7.60
2018-11-01T11:17:15.221Z,7.40
2018-11-01T11:20:19.636Z,7.10
2018-11-01T11:23:23.798Z,7.03
2018-11-01T11:26:28.098Z,6.60
2018-11-01T11:29:32.382Z,7.77
2018-11-01T11:32:36.650Z,5.53
2018-11-01T11:35:41.012Z,8.87
2018-11-01T11:38:45.240Z,8.77
2018-11-01T11:41:49.574Z,7.73
2018-11-01T11:44:53.833Z,7.93
2018-11-01T11:47:58.140Z,5.87
2018-11-01T11:51:02.465Z,8.97
2018-11-01T11:54:07.302Z,6.27
2018-11-01T11:57:11.683Z,5.83
2018-11-01T12:00:16.643Z,7.07
2018-11-01T12:03:20.914Z,8.20
2018-11-01T12:06:25.401Z,5.30
2018-11-01T12:09:29.548Z,7.40
2018-11-01T12:12:33.819Z,8.00
2018-11-01T12:15:38.089Z,5.93
2018-11-01T12:18:42.369Z,7.27
2018-11-01T12:21:46.649Z,7.07
2018-11-01T12:24:50.935Z,6.10
2018-11-01T12:27:55.216Z,9.83
2018-11-01T12:30:59.485Z,7.87
2018-11-01T12:34:03.751Z,7.83
2018-11-01T12:37:08.062Z,9.27
2018-11-01T12:40:13.370Z,10.67
2018-11-01T12:43:17.629Z,8.33
2018-11-01T12:46:21.923Z,7.67
2018-11-01T12:49:26.272Z,14.33
2018-11-01T12:52:30.564Z,7.67
2018-11-01T12:55:34.824Z,8.87
2018-11-01T12:58:39.131Z,8.00
2018-11-01T13:01:43.386Z,9.83
2018-11-01T13:04:47.631Z,9.43
2018-11-01T13:07:51.946Z,11.73
2018-11-01T13:10:56.231Z,12.30
2018-11-01T13:14:00.515Z,8.00
2018-11-01T13:17:04.810Z,9.60
2018-11-01T13:20:09.488Z,12.23
2018-11-01T13:23:13.769Z,14.37
2018-11-01T13:26:18.041Z,13.83
2018-11-01T13:29:22.423Z,15.30
2018-11-01T13:32:26.677Z,11.83
2018-11-01T13:35:31.088Z,13.07
2018-11-01T13:38:35.293Z,13.30
2018-11-01T13:41:39.620Z,14.00
2018-11-01T13:44:43.874Z,16.13
2018-11-01T13:47:48.180Z,19.87
2018-11-01T13:50:52.504Z,17.83
2018-11-01T13:53:56.813Z,19.80
2018-11-01T13:57:01.068Z,19.53
2018-11-01T14:00:05.611Z,14.30
2018-11-01T14:03:09.945Z,15.17
2018-11-01T14:06:14.271Z,14.90
2018-11-01T14:09:18.575Z,17.93
2018-11-01T14:12:22.879Z,17.37
2018-11-01T14:15:27.199Z,18.60
2018-11-01T14:18:31.491Z,16.00
2018-11-01T14:21:35.782Z,15.67
2018-11-01T14:24:40.090Z,17.20
2018-11-01T14:27:44.490Z,18.77
2018-11-01T14:30:48.825Z,16.90
2018-11-01T14:33:53.048Z,22.77
2018-11-01T14:36:57.374Z,19.50
2018-11-01T14:40:01.681Z,19.30
2018-11-01T14:43:06.261Z,17.80
2018-11-01T14:46:10.617Z,22.07
2018-11-01T14:49:14.884Z,16.53
2018-11-01T14:52:19.323Z,22.00
2018-11-01T14:55:24.401Z,19.33
2018-11-01T14:58:29.214Z,21.03
2018-11-01T15:01:32.079Z,22.47
2018-11-01T15:04:36.361Z,20.23
2018-11-01T15:07:40.643Z,21.00
2018-11-01T15:10:44.941Z,21.03
2018-11-01T15:13:49.280Z,21.80
2018-11-01T15:16:53.578Z,21.90
2018-11-01T15:19:57.885Z,24.87
2018-11-01T15:23:02.143Z,22.23
2018-11-01T15:26:06.553Z,24.83
2018-11-01T15:29:10.928Z,21.63
2018-11-01T15:32:20.446Z,24.20
2018-11-01T15:35:24.697Z,24.37
2018-11-01T15:38:29.045Z,29.60
2018-11-01T15:41:33.346Z,25.83
2018-11-01T15:44:37.634Z,21.87
2018-11-01T15:47:42.587Z,24.83
2018-11-01T15:50:46.947Z,20.93
2018-11-01T15:53:51.229Z,21.27
2018-11-01T15:56:55.526Z,24.63
2018-11-01T15:59:59.817Z,20.57
2018-11-01T16:03:04.126Z,22.13
2018-11-01T16:06:08.491Z,23.43
2018-11-01T16:09:14.055Z,19.83
2018-11-01T16:12:18.381Z,23.27
2018-11-01T16:15:22.637Z,24.37
2018-11-01T16:18:26.975Z,24.20
2018-11-01T16:21:31.299Z,24.33
2018-11-01T16:24:35.577Z,22.30
2018-11-01T16:27:39.854Z,25.77
2018-11-01T16:30:44.108Z,25.33
2018-11-01T16:33:48.443Z,31.80
2018-11-01T16:36:52.797Z,35.63
2018-11-01T16:39:57.106Z,34.80
2018-11-01T16:43:01.416Z,26.83
2018-11-01T16:46:06.675Z,22.93
2018-11-01T16:49:11.365Z,23.33
2018-11-01T16:52:15.655Z,19.73
2018-11-01T16:55:21.273Z,29.00
2018-11-01T16:58:25.690Z,25.63
2018-11-01T17:01:30.018Z,24.83
2018-11-01T17:04:34.373Z,26.00
2018-11-01T17:07:38.701Z,25.37
2018-11-01T17:10:43.040Z,28.80
2018-11-01T17:13:47.362Z,25.63
2018-11-01T17:16:51.672Z,29.20
2018-11-01T17:19:56.068Z,25.40
2018-11-01T17:23:00.397Z,28.17
2018-11-01T17:26:04.830Z,28.40
2018-11-01T17:29:09.115Z,33.17
2018-11-01T17:32:13.459Z,27.63
2018-11-01T17:35:18.195Z,29.77
2018-11-01T17:38:22.809Z,32.63
2018-11-01T17:41:27.097Z,31.03
2018-11-01T17:44:31.424Z,27.90
2018-11-01T17:47:35.754Z,30.93
2018-11-01T17:50:40.123Z,32.10
2018-11-01T17:53:45.137Z,28.57
2018-11-01T17:56:49.650Z,28.73
2018-11-01T17:59:55.712Z,26.40
2018-11-01T18:03:00.423Z,32.60
2018-11-01T18:06:04.865Z,31.50
2018-11-01T18:09:13.165Z,32.27
2018-11-01T18:12:17.722Z,32.23
2018-11-01T18:15:22.231Z,30.57
2018-11-01T18:18:28.571Z,33.73
2018-11-01T18:21:33.018Z,30.60
2018-11-01T18:24:38.020Z,31.43
2018-11-01T18:27:43.213Z,29.67
2018-11-01T18:30:47.801Z,30.40
2018-11-01T18:33:52.285Z,33.73
2018-11-01T18:36:56.785Z,32.70
2018-11-01T18:40:01.157Z,33.57
2018-11-01T18:43:05.991Z,29.80
2018-11-01T18:46:10.509Z,36.10
2018-11-01T18:49:15.677Z,41.10
2018-11-01T18:52:19.965Z,65.87
2018-11-01T18:55:24.393Z,49.27
2018-11-01T18:58:28.881Z,37.47
2018-11-01T19:01:33.257Z,33.93
2018-11-01T19:04:38.485Z,35.27
2018-11-01T19:07:43.895Z,40.77
2018-11-01T19:10:48.422Z,34.50
2018-11-01T19:13:53.224Z,34.67
2018-11-01T19:16:57.505Z,37.53
2018-11-01T19:20:01.888Z,39.27
2018-11-01T19:23:06.330Z,38.17
2018-11-01T19:26:11.360Z,36.90
2018-11-01T19:29:15.708Z,40.07
2018-11-01T19:32:20.243Z,41.10
2018-11-01T19:35:26.152Z,37.57
2018-11-01T19:38:32.502Z,37.47
2018-11-01T19:41:38.134Z,37.17
2018-11-01T19:44:44.478Z,36.83
2018-11-01T19:47:49.012Z,37.30
2018-11-01T19:50:54.087Z,39.57
2018-11-01T19:54:00.624Z,38.53
2018-11-01T19:57:05.003Z,183.07
2018-11-01T20:00:12.394Z,55.63
2018-11-01T20:03:16.861Z,119.37
2018-11-01T20:06:21.338Z,63.87
2018-11-01T20:09:25.717Z,44.63
2018-11-01T20:12:30.066Z,64.83
2018-11-01T20:15:34.981Z,66.63
2018-11-01T20:18:43.270Z,105.50
2018-11-01T20:21:47.777Z,37.03
2018-11-01T20:24:52.089Z,39.30
2018-11-01T20:27:56.578Z,37.43
2018-11-01T20:31:01.208Z,138.43
2018-11-01T20:34:07.055Z,41.50
2018-11-01T20:37:12.548Z,52.40
2018-11-01T20:40:16.872Z,43.77
2018-11-01T20:43:21.297Z,39.30
2018-11-01T20:46:25.744Z,37.33
2018-11-01T20:49:30.808Z,35.20
2018-11-01T20:52:35.259Z,36.87
2018-11-01T20:55:39.659Z,35.67
2018-11-01T20:58:44.993Z,36.67
2018-11-01T21:01:50.619Z,43.23
2018-11-01T21:04:55.438Z,44.10
2018-11-01T21:08:01.306Z,45.53
2018-11-01T21:11:05.853Z,36.73
2018-11-01T21:14:10.131Z,41.03
2018-11-01T21:17:16.104Z,40.57
2018-11-01T21:20:22.007Z,40.73
2018-11-01T21:23:27.515Z,35.57
2018-11-01T21:26:31.973Z,39.63
2018-11-01T21:29:37.232Z,39.87
2018-11-01T21:32:41.694Z,40.17
2018-11-01T21:35:46.245Z,35.43
2018-11-01T21:38:50.827Z,38.47
2018-11-01T21:41:55.143Z,37.87
2018-11-01T21:44:59.767Z,32.60
2018-11-01T21:48:04.116Z,36.37
2018-11-01T21:51:08.503Z,33.53
2018-11-01T21:54:13.248Z,31.27
2018-11-01T21:57:17.818Z,37.60
2018-11-01T22:00:23.442Z,35.20
2018-11-01T22:03:29.316Z,29.70
2018-11-01T22:06:35.193Z,33.00
2018-11-01T22:09:40.451Z,33.37
2018-11-01T22:12:46.323Z,32.27
2018-11-01T22:15:51.791Z,36.90
2018-11-01T22:18:57.200Z,35.90
2018-11-01T22:22:03.029Z,30.23
2018-11-01T22:25:09.592Z,30.87
2018-11-01T22:28:14.762Z,36.20
2018-11-01T22:31:20.280Z,31.77
2018-11-01T22:34:25.516Z,32.90
2018-11-01T22:37:30.366Z,31.90
2018-11-01T22:40:35.243Z,33.37
2018-11-01T22:43:41.302Z,31.97
2018-11-01T22:46:46.109Z,33.73
2018-11-01T22:49:51.256Z,31.00
2018-11-01T22:52:56.440Z,36.13
2018-11-01T22:56:01.193Z,38.70
2018-11-01T22:59:06.182Z,31.53
2018-11-01T23:02:12.613Z,33.73
2018-11-01T23:05:17.820Z,29.47
2018-11-01T23:08:22.598Z,30.77
2018-11-01T23:11:27.250Z,30.33
2018-11-01T23:14:34.163Z,29.40
2018-11-01T23:17:40.948Z,29.17
2018-11-01T23:20:46.135Z,27.80
2018-11-01T23:23:51.751Z,30.53
2018-11-01T23:26:56.181Z,28.07
2018-11-01T23:30:01.377Z,25.87
2018-11-01T23:33:09.684Z,25.97
2018-11-01T23:36:13.565Z,27.73
2018-11-01T23:39:23.069Z,27.70
2018-11-01T23:42:32.572Z,27.17
2018-11-01T23:45:42.217Z,26.83
2018-11-01T23:48:49.985Z,26.43
2018-11-01T23:52:00.384Z,25.80
2018-11-01T23:55:04.696Z,29.63
2018-11-01T23:58:09.003Z,26.93
